sensor_id;sensor_type;location;lat;lon;timestamp;pressure;altitude;pressure_sealevel;temperature;humidity
31771;BME280;18343;50.152;8.182;2023-02-01T00:01:41;97845.81;;;5.71;100.00
31771;BME280;18343;50.152;8.182;2023-02-01T00:04:26;97845.19;;;5.59;100.00
31771;BME280;18343;50.152;8.182;2023-02-01T00:07:12;97848.94;;;5.66;100.00
31771;BME280;18343;50.152;8.182;2023-02-01T00:09:57;97847.69;;;5.61;100.00
31771;BME280;18343;50.152;8.182;2023-02-01T00:12:41;97843.13;;;5.71;100.00
31771;BME280;18343;50.152;8.182;2023-02-01T00:15:28;97845.13;;;5.69;100.00
31771;BME280;18343;50.152;8.182;2023-02-01T00:18:12;97845.41;;;5.66;100.00
31771;BME280;18343;50.152;8.182;2023-02-01T00:20:57;97839.53;;;5.80;100.00
31771;BME280;18343;50.152;8.182;2023-02-01T00:23:44;97823.75;;;5.87;100.00
31771;BME280;18343;50.152;8.182;2023-02-01T00:26:33;97824.47;;;5.89;100.00
31771;BME280;18343;50.152;8.182;2023-02-01T00:29:20;97806.31;;;5.92;100.00
31771;BME280;18343;50.152;8.182;2023-02-01T00:32:04;97818.81;;;5.74;100.00
31771;BME280;18343;50.152;8.182;2023-02-01T00:34:49;97833.22;;;5.81;100.00
31771;BME280;18343;50.152;8.182;2023-02-01T00:37:34;97827.28;;;5.69;100.00
31771;BME280;18343;50.152;8.182;2023-02-01T00:40:21;97835.13;;;5.71;100.00
31771;BME280;18343;50.152;8.182;2023-02-01T00:43:06;97834.84;;;5.74;100.00
31771;BME280;18343;50.152;8.182;2023-02-01T00:45:51;97841.06;;;5.83;100.00
31771;BME280;18343;50.152;8.182;2023-02-01T00:48:36;97828.72;;;5.82;100.00
31771;BME280;18343;50.152;8.182;2023-02-01T00:51:23;97837.84;;;5.79;100.00
31771;BME280;18343;50.152;8.182;2023-02-01T00:54:08;97843.66;;;5.74;100.00
31771;BME280;18343;50.152;8.182;2023-02-01T00:56:54;97836.13;;;5.70;100.00
31771;BME280;18343;50.152;8.182;2023-02-01T00:59:39;97842.44;;;5.69;100.00
31771;BME280;18343;50.152;8.182;2023-02-01T01:02:26;97839.84;;;5.59;100.00
31771;BME280;18343;50.152;8.182;2023-02-01T01:05:11;97836.81;;;5.72;100.00
31771;BME280;18343;50.152;8.182;2023-02-01T01:07:56;97837.09;;;5.51;100.00
31771;BME280;18343;50.152;8.182;2023-02-01T01:10:41;97827.28;;;5.69;100.00
31771;BME280;18343;50.152;8.182;2023-02-01T01:13:27;97824.22;;;5.64;100.00
31771;BME280;18343;50.152;8.182;2023-02-01T01:16:12;97834.34;;;5.78;100.00
31771;BME280;18343;50.152;8.182;2023-02-01T01:18:58;97834.00;;;5.73;100.00
31771;BME280;18343;50.152;8.182;2023-02-01T01:21:43;97835.03;;;5.81;100.00
31771;BME280;18343;50.152;8.182;2023-02-01T01:24:27;97826.16;;;5.90;100.00
31771;BME280;18343;50.152;8.182;2023-02-01T01:27:12;97835.88;;;5.81;100.00
31771;BME280;18343;50.152;8.182;2023-02-01T01:29:58;97831.00;;;5.76;100.00
31771;BME280;18343;50.152;8.182;2023-02-01T01:32:43;97822.50;;;5.91;100.00
31771;BME280;18343;50.152;8.182;2023-02-01T01:35:29;97828.66;;;5.91;100.00
31771;BME280;18343;50.152;8.182;2023-02-01T01:38:14;97827.72;;;5.83;100.00
31771;BME280;18343;50.152;8.182;2023-02-01T01:40:59;97825.41;;;5.97;100.00
31771;BME280;18343;50.152;8.182;2023-02-01T01:43:55;97825.59;;;6.04;100.00
31771;BME280;18343;50.152;8.182;2023-02-01T01:46:42;97820.06;;;5.97;100.00
31771;BME280;18343;50.152;8.182;2023-02-01T01:49:26;97828.94;;;6.06;100.00
31771;BME280;18343;50.152;8.182;2023-02-01T01:52:11;97824.91;;;6.02;100.00
31771;BME280;18343;50.152;8.182;2023-02-01T01:54:57;97820.50;;;5.93;100.00
31771;BME280;18343;50.152;8.182;2023-02-01T01:57:46;97822.00;;;5.77;100.00
31771;BME280;18343;50.152;8.182;2023-02-01T02:00:34;97822.50;;;5.91;100.00
31771;BME280;18343;50.152;8.182;2023-02-01T02:03:30;97796.91;;;5.88;100.00
31771;BME280;18343;50.152;8.182;2023-02-01T02:06:29;97791.06;;;5.67;100.00
31771;BME280;18343;50.152;8.182;2023-02-01T02:09:16;97794.88;;;5.64;100.00
31771;BME280;18343;50.152;8.182;2023-02-01T02:12:01;97795.34;;;5.60;100.00
31771;BME280;18343;50.152;8.182;2023-02-01T02:14:46;97785.28;;;5.71;100.00
31771;BME280;18343;50.152;8.182;2023-02-01T02:17:36;97786.31;;;5.78;100.00
31771;BME280;18343;50.152;8.182;2023-02-01T02:20:48;97784.50;;;5.97;100.00
31771;BME280;18343;50.152;8.182;2023-02-01T02:24:23;97787.53;;;6.02;100.00
31771;BME280;18343;50.152;8.182;2023-02-01T02:27:22;97790.16;;;5.94;100.00
31771;BME280;18343;50.152;8.182;2023-02-01T02:30:51;97787.88;;;5.99;100.00
31771;BME280;18343;50.152;8.182;2023-02-01T02:34:06;97793.66;;;5.94;100.00
31771;BME280;18343;50.152;8.182;2023-02-01T02:36:59;97795.53;;;6.02;100.00
31771;BME280;18343;50.152;8.182;2023-02-01T02:39:54;97794.81;;;5.92;100.00
31771;BME280;18343;50.152;8.182;2023-02-01T02:42:50;97796.50;;;5.93;100.00
31771;BME280;18343;50.152;8.182;2023-02-01T02:45:41;97802.41;;;5.87;100.00
31771;BME280;18343;50.152;8.182;2023-02-01T02:48:32;97792.03;;;5.84;100.00
31771;BME280;18343;50.152;8.182;2023-02-01T02:51:24;97796.78;;;5.90;100.00
31771;BME280;18343;50.152;8.182;2023-02-01T02:54:15;97793.34;;;5.97;100.00
31771;BME280;18343;50.152;8.182;2023-02-01T02:57:06;97800.50;;;5.79;100.00
31771;BME280;18343;50.152;8.182;2023-02-01T02:59:55;97802.47;;;5.77;100.00
31771;BME280;18343;50.152;8.182;2023-02-01T03:02:40;97789.53;;;5.82;100.00
31771;BME280;18343;50.152;8.182;2023-02-01T03:05:24;97782.31;;;5.92;100.00
31771;BME280;18343;50.152;8.182;2023-02-01T03:08:13;97774.97;;;5.94;100.00
31771;BME280;18343;50.152;8.182;2023-02-01T03:11:02;97775.13;;;5.93;100.00
31771;BME280;18343;50.152;8.182;2023-02-01T03:13:52;97775.28;;;5.91;100.00
31771;BME280;18343;50.152;8.182;2023-02-01T03:16:46;97766.34;;;6.00;100.00
31771;BME280;18343;50.152;8.182;2023-02-01T03:19:37;97756.88;;;6.06;100.00
31771;BME280;18343;50.152;8.182;2023-02-01T03:22:24;97751.84;;;6.03;100.00
31771;BME280;18343;50.152;8.182;2023-02-01T03:25:15;97766.13;;;5.94;100.00
31771;BME280;18343;50.152;8.182;2023-02-01T03:28:06;97752.47;;;5.97;100.00
31771;BME280;18343;50.152;8.182;2023-02-01T03:30:52;97749.66;;;5.98;100.00
31771;BME280;18343;50.152;8.182;2023-02-01T03:33:37;97757.81;;;5.97;100.00
31771;BME280;18343;50.152;8.182;2023-02-01T03:36:28;97756.53;;;6.01;100.00
31771;BME280;18343;50.152;8.182;2023-02-01T03:39:19;97756.88;;;6.06;100.00
31771;BME280;18343;50.152;8.182;2023-02-01T03:42:12;97757.16;;;6.03;100.00
31771;BME280;18343;50.152;8.182;2023-02-01T03:45:03;97740.84;;;6.06;100.00
31771;BME280;18343;50.152;8.182;2023-02-01T03:47:54;97739.84;;;6.07;100.00
31771;BME280;18343;50.152;8.182;2023-02-01T03:50:46;97747.25;;;6.13;100.00
31771;BME280;18343;50.152;8.182;2023-02-01T03:53:35;97751.06;;;6.10;100.00
31771;BME280;18343;50.152;8.182;2023-02-01T03:56:22;97762.03;;;6.07;100.00
31771;BME280;18343;50.152;8.182;2023-02-01T03:59:10;97757.16;;;6.03;100.00
31771;BME280;18343;50.152;8.182;2023-02-01T04:01:55;97764.88;;;5.88;100.00
31771;BME280;18343;50.152;8.182;2023-02-01T04:04:39;97758.81;;;5.96;100.00
31771;BME280;18343;50.152;8.182;2023-02-01T04:07:24;97751.63;;;5.78;100.00
31771;BME280;18343;50.152;8.182;2023-02-01T04:10:10;97754.69;;;5.84;100.00
31771;BME280;18343;50.152;8.182;2023-02-01T04:12:55;97748.44;;;5.93;100.00
31771;BME280;18343;50.152;8.182;2023-02-01T04:15:41;97749.66;;;5.81;100.00
31771;BME280;18343;50.152;8.182;2023-02-01T04:18:26;97758.63;;;5.79;100.00
31771;BME280;18343;50.152;8.182;2023-02-01T04:21:11;97758.72;;;5.88;100.00
31771;BME280;18343;50.152;8.182;2023-02-01T04:23:56;97749.88;;;5.87;100.00
31771;BME280;18343;50.152;8.182;2023-02-01T04:26:41;97752.41;;;5.89;100.00
31771;BME280;18343;50.152;8.182;2023-02-01T04:29:25;97757.81;;;5.97;100.00
31771;BME280;18343;50.152;8.182;2023-02-01T04:32:12;97753.31;;;5.97;100.00
31771;BME280;18343;50.152;8.182;2023-02-01T04:34:56;97753.16;;;5.99;100.00
31771;BME280;18343;50.152;8.182;2023-02-01T04:37:41;97756.53;;;6.01;100.00
31771;BME280;18343;50.152;8.182;2023-02-01T04:40:26;97755.84;;;5.99;100.00
31771;BME280;18343;50.152;8.182;2023-02-01T04:43:11;97756.16;;;5.96;100.00
31771;BME280;18343;50.152;8.182;2023-02-01T04:45:56;97753.16;;;5.99;100.00
31771;BME280;18343;50.152;8.182;2023-02-01T04:48:42;97747.28;;;5.95;100.00
31771;BME280;18343;50.152;8.182;2023-02-01T04:51:28;97753.09;;;5.91;100.00
31771;BME280;18343;50.152;8.182;2023-02-01T04:54:14;97754.94;;;5.90;100.00
31771;BME280;18343;50.152;8.182;2023-02-01T04:56:59;97743.69;;;5.87;100.00
31771;BME280;18343;50.152;8.182;2023-02-01T04:59:44;97754.00;;;5.82;100.00
31771;BME280;18343;50.152;8.182;2023-02-01T05:02:28;97753.31;;;5.79;100.00
31771;BME280;18343;50.152;8.182;2023-02-01T05:05:16;97755.66;;;5.83;100.00
31771;BME280;18343;50.152;8.182;2023-02-01T05:08:00;97747.50;;;5.84;100.00
31771;BME280;18343;50.152;8.182;2023-02-01T05:10:45;97741.31;;;5.84;100.00
31771;BME280;18343;50.152;8.182;2023-02-01T05:13:30;97744.84;;;5.84;100.00
31771;BME280;18343;50.152;8.182;2023-02-01T05:16:16;97740.13;;;5.78;100.00
31771;BME280;18343;50.152;8.182;2023-02-01T05:19:02;97739.28;;;5.77;100.00
31771;BME280;18343;50.152;8.182;2023-02-01T05:21:48;97743.56;;;5.53;100.00
31771;BME280;18343;50.152;8.182;2023-02-01T05:24:33;97741.06;;;5.33;100.00
31771;BME280;18343;50.152;8.182;2023-02-01T05:27:17;97743.44;;;5.19;100.00
31771;BME280;18343;50.152;8.182;2023-02-01T05:30:03;97746.41;;;5.33;100.00
31771;BME280;18343;50.152;8.182;2023-02-01T05:32:50;97752.56;;;4.71;100.00
31771;BME280;18343;50.152;8.182;2023-02-01T05:35:35;97748.16;;;5.25;100.00
31771;BME280;18343;50.152;8.182;2023-02-01T05:38:21;97745.97;;;5.38;100.00
31771;BME280;18343;50.152;8.182;2023-02-01T05:41:05;97735.28;;;5.56;100.00
31771;BME280;18343;50.152;8.182;2023-02-01T05:43:50;97737.84;;;5.48;100.00
31771;BME280;18343;50.152;8.182;2023-02-01T05:46:35;97739.72;;;5.29;100.00
31771;BME280;18343;50.152;8.182;2023-02-01T05:49:20;97749.22;;;5.32;100.00
31771;BME280;18343;50.152;8.182;2023-02-01T05:52:05;97740.19;;;5.42;100.00
31771;BME280;18343;50.152;8.182;2023-02-01T05:54:51;97737.13;;;5.37;100.00
31771;BME280;18343;50.152;8.182;2023-02-01T05:57:36;97734.81;;;5.25;100.00
31771;BME280;18343;50.152;8.182;2023-02-01T06:00:28;97724.91;;;5.53;100.00
31771;BME280;18343;50.152;8.182;2023-02-01T06:03:16;97724.75;;;5.54;100.00
31771;BME280;18343;50.152;8.182;2023-02-01T06:06:00;97731.38;;;5.50;100.00
31771;BME280;18343;50.152;8.182;2023-02-01T06:08:53;97738.81;;;5.38;100.00
31771;BME280;18343;50.152;8.182;2023-02-01T06:11:39;97739.47;;;5.05;100.00
31771;BME280;18343;50.152;8.182;2023-02-01T06:14:26;97723.31;;;5.06;100.00
31771;BME280;18343;50.152;8.182;2023-02-01T06:17:15;97735.41;;;5.01;100.00
31771;BME280;18343;50.152;8.182;2023-02-01T06:19:59;97745.66;;;4.78;100.00
31771;BME280;18343;50.152;8.182;2023-02-01T06:22:44;97746.47;;;4.88;100.00
31771;BME280;18343;50.152;8.182;2023-02-01T06:25:29;97751.16;;;4.94;100.00
31771;BME280;18343;50.152;8.182;2023-02-01T06:28:16;97747.09;;;5.18;100.00
31771;BME280;18343;50.152;8.182;2023-02-01T06:31:06;97735.41;;;5.01;100.00
31771;BME280;18343;50.152;8.182;2023-02-01T06:33:52;97726.44;;;5.02;100.00
31771;BME280;18343;50.152;8.182;2023-02-01T06:36:36;97732.56;;;5.12;100.00
31771;BME280;18343;50.152;8.182;2023-02-01T06:39:21;97738.63;;;4.87;100.00
31771;BME280;18343;50.152;8.182;2023-02-01T06:42:06;97741.88;;;4.81;100.00
31771;BME280;18343;50.152;8.182;2023-02-01T06:44:53;97736.03;;;4.67;100.00
31771;BME280;18343;50.152;8.182;2023-02-01T06:47:38;97738.75;;;4.85;100.00
31771;BME280;18343;50.152;8.182;2023-02-01T06:50:24;97739.06;;;4.82;100.00
31771;BME280;18343;50.152;8.182;2023-02-01T06:53:09;97744.94;;;5.03;100.00
31771;BME280;18343;50.152;8.182;2023-02-01T06:55:54;97746.88;;;5.11;100.00
31771;BME280;18343;50.152;8.182;2023-02-01T06:58:40;97748.59;;;5.02;100.00
31771;BME280;18343;50.152;8.182;2023-02-01T07:01:26;97747.56;;;5.13;100.00
31771;BME280;18343;50.152;8.182;2023-02-01T07:04:14;97739.63;;;5.03;100.00
31771;BME280;18343;50.152;8.182;2023-02-01T07:07:00;97738.47;;;4.61;100.00
31771;BME280;18343;50.152;8.182;2023-02-01T07:09:44;97738.91;;;4.84;100.00
31771;BME280;18343;50.152;8.182;2023-02-01T07:12:29;97743.88;;;4.69;100.00
31771;BME280;18343;50.152;8.182;2023-02-01T07:15:17;97750.31;;;4.76;100.00
31771;BME280;18343;50.152;8.182;2023-02-01T07:18:04;97744.53;;;4.81;100.00
31771;BME280;18343;50.152;8.182;2023-02-01T07:20:50;97736.84;;;4.95;100.00
31771;BME280;18343;50.152;8.182;2023-02-01T07:23:35;97751.28;;;4.75;100.00
31771;BME280;18343;50.152;8.182;2023-02-01T07:26:20;97754.75;;;4.58;100.00
31771;BME280;18343;50.152;8.182;2023-02-01T07:29:05;97758.97;;;4.51;100.00
31771;BME280;18343;50.152;8.182;2023-02-01T07:31:51;97767.53;;;4.82;100.00
31771;BME280;18343;50.152;8.182;2023-02-01T07:34:37;97758.50;;;4.92;100.00
31771;BME280;18343;50.152;8.182;2023-02-01T07:37:22;97782.38;;;4.84;100.00
31771;BME280;18343;50.152;8.182;2023-02-01T07:40:10;97767.63;;;4.62;100.00
31771;BME280;18343;50.152;8.182;2023-02-01T07:42:55;97782.59;;;4.36;100.00
31771;BME280;18343;50.152;8.182;2023-02-01T07:45:39;97788.00;;;4.44;100.00
31771;BME280;18343;50.152;8.182;2023-02-01T07:48:31;97789.22;;;4.59;100.00
31771;BME280;18343;50.152;8.182;2023-02-01T07:51:20;97780.47;;;4.67;100.00
31771;BME280;18343;50.152;8.182;2023-02-01T07:54:05;97792.22;;;4.47;100.00
31771;BME280;18343;50.152;8.182;2023-02-01T07:56:50;97795.50;;;4.21;100.00
31771;BME280;18343;50.152;8.182;2023-02-01T07:59:35;97791.50;;;4.45;100.00
31771;BME280;18343;50.152;8.182;2023-02-01T08:02:22;97798.09;;;4.50;100.00
31771;BME280;18343;50.152;8.182;2023-02-01T08:05:07;97793.78;;;4.39;100.00
31771;BME280;18343;50.152;8.182;2023-02-01T08:07:53;97790.78;;;4.52;100.00
31771;BME280;18343;50.152;8.182;2023-02-01T08:10:38;97796.88;;;4.72;100.00
31771;BME280;18343;50.152;8.182;2023-02-01T08:13:23;97792.31;;;4.55;100.00
31771;BME280;18343;50.152;8.182;2023-02-01T08:16:09;97798.06;;;4.60;100.00
31771;BME280;18343;50.152;8.182;2023-02-01T08:18:54;97794.78;;;4.66;100.00
31771;BME280;18343;50.152;8.182;2023-02-01T08:21:39;97794.31;;;4.43;100.00
31771;BME280;18343;50.152;8.182;2023-02-01T08:24:25;97801.00;;;4.57;100.00
31771;BME280;18343;50.152;8.182;2023-02-01T08:27:11;97800.13;;;4.66;100.00
31771;BME280;18343;50.152;8.182;2023-02-01T08:29:56;97811.09;;;4.63;100.00
31771;BME280;18343;50.152;8.182;2023-02-01T08:32:41;97805.31;;;4.95;100.00
31771;BME280;18343;50.152;8.182;2023-02-01T08:35:26;97809.00;;;4.57;100.00
31771;BME280;18343;50.152;8.182;2023-02-01T08:38:10;97826.09;;;5.19;100.00
31771;BME280;18343;50.152;8.182;2023-02-01T08:40:56;97822.00;;;4.97;100.00
31771;BME280;18343;50.152;8.182;2023-02-01T08:43:42;97823.66;;;4.98;100.00
31771;BME280;18343;50.152;8.182;2023-02-01T08:46:27;97824.72;;;5.15;100.00
31771;BME280;18343;50.152;8.182;2023-02-01T08:49:12;97826.25;;;5.17;100.00
31771;BME280;18343;50.152;8.182;2023-02-01T08:51:56;97820.13;;;5.07;100.00
31771;BME280;18343;50.152;8.182;2023-02-01T08:54:41;97829.78;;;4.81;100.00
31771;BME280;18343;50.152;8.182;2023-02-01T08:57:27;97829.09;;;5.06;100.00
31771;BME280;18343;50.152;8.182;2023-02-01T09:00:15;97828.28;;;4.68;100.00
31771;BME280;18343;50.152;8.182;2023-02-01T09:03:03;97827.38;;;5.15;100.00
31771;BME280;18343;50.152;8.182;2023-02-01T09:05:48;97830.53;;;5.00;100.00
31771;BME280;18343;50.152;8.182;2023-02-01T09:08:39;97830.81;;;4.97;100.00
31771;BME280;18343;50.152;8.182;2023-02-01T09:11:25;97828.34;;;5.41;100.00
31771;BME280;18343;50.152;8.182;2023-02-01T09:14:11;97833.97;;;5.38;100.00
31771;BME280;18343;50.152;8.182;2023-02-01T09:16:57;97842.09;;;5.19;100.00
31771;BME280;18343;50.152;8.182;2023-02-01T09:19:41;97845.19;;;5.14;100.00
31771;BME280;18343;50.152;8.182;2023-02-01T09:22:26;97848.63;;;5.24;100.00
31771;BME280;18343;50.152;8.182;2023-02-01T09:25:14;97849.41;;;5.34;100.00
31771;BME280;18343;50.152;8.182;2023-02-01T09:27:59;97868.53;;;5.02;100.00
31771;BME280;18343;50.152;8.182;2023-02-01T09:30:46;97852.53;;;5.02;100.00
31771;BME280;18343;50.152;8.182;2023-02-01T09:33:31;97862.72;;;5.17;100.00
31771;BME280;18343;50.152;8.182;2023-02-01T09:36:15;97862.63;;;5.08;100.00
31771;BME280;18343;50.152;8.182;2023-02-01T09:39:01;97875.25;;;5.34;100.00
31771;BME280;18343;50.152;8.182;2023-02-01T09:41:55;97863.53;;;5.44;100.00
31771;BME280;18343;50.152;8.182;2023-02-01T09:45:06;97878.78;;;4.97;100.00
31771;BME280;18343;50.152;8.182;2023-02-01T09:48:01;97878.84;;;5.42;100.00
31771;BME280;18343;50.152;8.182;2023-02-01T09:50:52;97873.53;;;5.42;100.00
31771;BME280;18343;50.152;8.182;2023-02-01T09:53:42;97869.19;;;5.59;100.00
31771;BME280;18343;50.152;8.182;2023-02-01T09:56:44;97869.72;;;5.63;100.00
31771;BME280;18343;50.152;8.182;2023-02-01T09:59:38;97861.72;;;5.81;100.00
31771;BME280;18343;50.152;8.182;2023-02-01T10:02:35;97868.44;;;5.67;100.00
31771;BME280;18343;50.152;8.182;2023-02-01T10:05:50;97864.38;;;5.81;100.00
31771;BME280;18343;50.152;8.182;2023-02-01T10:09:14;97863.41;;;5.82;100.00
31771;BME280;18343;50.152;8.182;2023-02-01T10:16:16;97862.28;;;5.66;100.00
31771;BME280;18343;50.152;8.182;2023-02-01T10:19:29;97850.13;;;5.54;100.00
31771;BME280;18343;50.152;8.182;2023-02-01T10:22:30;97849.19;;;5.91;100.00
31771;BME280;18343;50.152;8.182;2023-02-01T10:25:26;97850.84;;;5.92;100.00
31771;BME280;18343;50.152;8.182;2023-02-01T10:28:15;97859.75;;;5.83;100.00
31771;BME280;18343;50.152;8.182;2023-02-01T10:31:01;97858.00;;;5.73;100.00
31771;BME280;18343;50.152;8.182;2023-02-01T10:33:48;97848.44;;;5.53;100.00
31771;BME280;18343;50.152;8.182;2023-02-01T10:36:40;97850.44;;;5.51;100.00
31771;BME280;18343;50.152;8.182;2023-02-01T10:39:26;97853.66;;;5.27;100.00
31771;BME280;18343;50.152;8.182;2023-02-01T10:42:10;97838.72;;;5.44;100.00
31771;BME280;18343;50.152;8.182;2023-02-01T10:44:57;97833.19;;;5.28;100.00
31771;BME280;18343;50.152;8.182;2023-02-01T10:47:50;97820.53;;;5.30;100.00
31771;BME280;18343;50.152;8.182;2023-02-01T10:50:46;97816.06;;;5.66;100.00
31771;BME280;18343;50.152;8.182;2023-02-01T10:53:36;97802.41;;;5.87;100.00
31771;BME280;18343;50.152;8.182;2023-02-01T10:56:28;97809.44;;;5.70;100.00
31771;BME280;18343;50.152;8.182;2023-02-01T10:59:17;97816.47;;;5.89;100.00
31771;BME280;18343;50.152;8.182;2023-02-01T11:02:15;97810.72;;;5.84;100.00
31771;BME280;18343;50.152;8.182;2023-02-01T11:05:05;97815.22;;;5.65;100.00
31771;BME280;18343;50.152;8.182;2023-02-01T11:07:54;97818.06;;;5.46;100.00
31771;BME280;18343;50.152;8.182;2023-02-01T11:10:43;97805.72;;;5.98;100.00
31771;BME280;18343;50.152;8.182;2023-02-01T11:13:36;97805.00;;;5.78;100.00
31771;BME280;18343;50.152;8.182;2023-02-01T11:16:23;97797.75;;;5.53;100.00
31771;BME280;18343;50.152;8.182;2023-02-01T11:19:15;97801.63;;;5.76;100.00
31771;BME280;18343;50.152;8.182;2023-02-01T11:22:00;97801.00;;;5.92;100.00
31771;BME280;18343;50.152;8.182;2023-02-01T11:24:47;97803.00;;;5.81;100.00
31771;BME280;18343;50.152;8.182;2023-02-01T11:27:59;97791.56;;;5.88;100.00
31771;BME280;18343;50.152;8.182;2023-02-01T11:30:53;97796.31;;;5.76;100.00
31771;BME280;18343;50.152;8.182;2023-02-01T11:33:50;97797.03;;;5.96;100.00
31771;BME280;18343;50.152;8.182;2023-02-01T11:36:36;97803.09;;;6.06;100.00
31771;BME280;18343;50.152;8.182;2023-02-01T11:39:26;97796.28;;;6.12;100.00
31771;BME280;18343;50.152;8.182;2023-02-01T11:42:16;97806.59;;;6.07;100.00
31771;BME280;18343;50.152;8.182;2023-02-01T11:45:25;97795.69;;;5.83;100.00
31771;BME280;18343;50.152;8.182;2023-02-01T11:48:16;97796.31;;;5.76;100.00
31771;BME280;18343;50.152;8.182;2023-02-01T11:51:24;97792.09;;;6.09;100.00
31771;BME280;18343;50.152;8.182;2023-02-01T11:54:39;97778.72;;;6.01;100.00
31771;BME280;18343;50.152;8.182;2023-02-01T11:57:43;97782.84;;;6.22;100.00
31771;BME280;18343;50.152;8.182;2023-02-01T12:01:00;97775.84;;;6.03;100.00
31771;BME280;18343;50.152;8.182;2023-02-01T12:04:24;97776.22;;;6.26;100.00
31771;BME280;18343;50.152;8.182;2023-02-01T12:07:20;97765.72;;;6.06;100.00
31771;BME280;18343;50.152;8.182;2023-02-01T12:10:23;97761.94;;;5.91;100.00
31771;BME280;18343;50.152;8.182;2023-02-01T12:13:21;97765.31;;;6.19;100.00
31771;BME280;18343;50.152;8.182;2023-02-01T12:16:22;97756.22;;;6.38;100.00
31771;BME280;18343;50.152;8.182;2023-02-01T12:19:50;97763.97;;;6.49;100.00
31771;BME280;18343;50.152;8.182;2023-02-01T12:22:55;97761.63;;;6.46;100.00
31771;BME280;18343;50.152;8.182;2023-02-01T12:26:08;97754.31;;;6.22;100.00
31771;BME280;18343;50.152;8.182;2023-02-01T12:29:17;97754.03;;;6.07;100.00
31771;BME280;18343;50.152;8.182;2023-02-01T12:32:10;97742.78;;;6.48;100.00
31771;BME280;18343;50.152;8.182;2023-02-01T12:35:28;97755.34;;;6.03;100.00
31771;BME280;18343;50.152;8.182;2023-02-01T12:38:45;97736.56;;;6.13;100.00
31771;BME280;18343;50.152;8.182;2023-02-01T12:41:47;97735.38;;;6.41;100.00
31771;BME280;18343;50.152;8.182;2023-02-01T12:44:42;97733.00;;;5.87;100.00
31771;BME280;18343;50.152;8.182;2023-02-01T12:47:34;97741.28;;;6.19;100.00
31771;BME280;18343;50.152;8.182;2023-02-01T12:50:25;97745.00;;;6.26;100.00
31771;BME280;18343;50.152;8.182;2023-02-01T12:53:17;97726.72;;;6.14;100.00
31771;BME280;18343;50.152;8.182;2023-02-01T12:56:08;97731.31;;;6.03;100.00
31771;BME280;18343;50.152;8.182;2023-02-01T12:58:58;97726.63;;;6.23;100.00
31771;BME280;18343;50.152;8.182;2023-02-01T13:01:49;97727.06;;;6.44;100.00
31771;BME280;18343;50.152;8.182;2023-02-01T13:04:52;97726.63;;;6.31;100.00
31771;BME280;18343;50.152;8.182;2023-02-01T13:07:50;97730.19;;;6.40;100.00
31771;BME280;18343;50.152;8.182;2023-02-01T13:10:42;97723.81;;;6.33;100.00
31771;BME280;18343;50.152;8.182;2023-02-01T13:13:35;97733.81;;;6.65;100.00
31771;BME280;18343;50.152;8.182;2023-02-01T13:16:27;97726.88;;;6.80;100.00
31771;BME280;18343;50.152;8.182;2023-02-01T13:19:17;97730.78;;;6.60;100.00
31771;BME280;18343;50.152;8.182;2023-02-01T13:22:09;97738.16;;;6.06;100.00
31771;BME280;18343;50.152;8.182;2023-02-01T13:24:59;97745.56;;;6.12;100.00
31771;BME280;18343;50.152;8.182;2023-02-01T13:27:45;97734.03;;;6.37;100.00
31771;BME280;18343;50.152;8.182;2023-02-01T13:30:45;97731.81;;;5.99;100.00
31771;BME280;18343;50.152;8.182;2023-02-01T13:33:50;97731.66;;;6.00;100.00
31771;BME280;18343;50.152;8.182;2023-02-01T13:36:52;97731.41;;;6.45;100.00
31771;BME280;18343;50.152;8.182;2023-02-01T13:39:55;97730.09;;;6.50;100.00
31771;BME280;18343;50.152;8.182;2023-02-01T13:42:49;97746.19;;;5.88;100.00
31771;BME280;18343;50.152;8.182;2023-02-01T13:45:37;97735.78;;;6.21;100.00
31771;BME280;18343;50.152;8.182;2023-02-01T13:48:31;97740.34;;;6.28;100.00
31771;BME280;18343;50.152;8.182;2023-02-01T13:51:44;97737.31;;;5.97;100.00
31771;BME280;18343;50.152;8.182;2023-02-01T13:54:32;97722.38;;;6.13;100.00
31771;BME280;18343;50.152;8.182;2023-02-01T13:57:37;97729.66;;;6.28;100.00
31771;BME280;18343;50.152;8.182;2023-02-01T14:00:28;97728.69;;;6.37;100.00
31771;BME280;18343;50.152;8.182;2023-02-01T14:03:17;97732.94;;;6.22;100.00
31771;BME280;18343;50.152;8.182;2023-02-01T14:06:45;97719.59;;;6.56;100.00
31771;BME280;18343;50.152;8.182;2023-02-01T14:09:34;97716.06;;;6.48;100.00
31771;BME280;18343;50.152;8.182;2023-02-01T14:12:47;97717.78;;;6.65;100.00
31771;BME280;18343;50.152;8.182;2023-02-01T14:15:32;97710.38;;;6.51;100.00
31771;BME280;18343;50.152;8.182;2023-02-01T14:19:00;97715.06;;;6.49;100.00
31771;BME280;18343;50.152;8.182;2023-02-01T14:21:49;97710.22;;;6.52;100.00
31771;BME280;18343;50.152;8.182;2023-02-01T14:24:36;97713.59;;;6.62;100.00
31771;BME280;18343;50.152;8.182;2023-02-01T14:27:23;97713.13;;;6.33;100.00
31771;BME280;18343;50.152;8.182;2023-02-01T14:30:16;97709.16;;;6.37;100.00
31771;BME280;18343;50.152;8.182;2023-02-01T14:33:17;97708.59;;;6.25;100.00
31771;BME280;18343;50.152;8.182;2023-02-01T14:36:09;97712.69;;;6.45;100.00
31771;BME280;18343;50.152;8.182;2023-02-01T14:38:55;97710.25;;;6.60;100.00
31771;BME280;18343;50.152;8.182;2023-02-01T14:41:41;97703.91;;;6.61;100.00
31771;BME280;18343;50.152;8.182;2023-02-01T14:44:36;97711.13;;;6.69;100.00
31771;BME280;18343;50.152;8.182;2023-02-01T14:47:32;97716.81;;;6.74;100.00
31771;BME280;18343;50.152;8.182;2023-02-01T14:50:31;97707.88;;;6.99;100.00
31771;BME280;18343;50.152;8.182;2023-02-01T14:53:21;97712.69;;;6.88;100.00
31771;BME280;18343;50.152;8.182;2023-02-01T14:56:13;97707.88;;;6.99;100.00
31771;BME280;18343;50.152;8.182;2023-02-01T14:59:06;97704.81;;;6.86;100.00
31771;BME280;18343;50.152;8.182;2023-02-01T15:01:56;97709.53;;;6.92;100.00
31771;BME280;18343;50.152;8.182;2023-02-01T15:04:43;97710.88;;;6.96;100.00
31771;BME280;18343;50.152;8.182;2023-02-01T15:07:29;97708.69;;;6.92;100.00